Guangzhou, China
Current Conditions -  °F | °C
As of 12:30 AM on Saturday 20 Dec 2014 (Local Time) from ZGGG Reporting Station
Haze Haze  
Wind Chill: 48°   Ceiling: Unl
Heat Index: 48°   Visibility: 2.8mi
Dew Point: 46°   Wind: 2mph
Humidity: 93%   Direction: 60°ENE
Pressure: 30.24"   Gusts: NA
Location:  23.12°N, 113.25°E
Report Text: ZGGG 191630Z 06001MPS 4500 BR NSC 09/08 Q1024 NOSIG
Loading
Personal Weather Stations






























Interactive Weather Map New forecast layout! Learn more

10-Day Weather Forecast

Advertisements
Track Severe Weather on mobile